Time;durP1;ratioP1;P1;durP2;ratioP2;P2;SDS_P1;SDS_P2;PMS_P1;PMS_P2;Temp;Humidity;BMP_temperature;BMP_pressure;BME280_temperature;BME280_humidity;BME280_pressure;Samples;Min_cycle;Max_cycle;Signal;HPM_P1;HPM_P2
2022/11/24 00:01:14;;;;;;;20.17;18.50;;;7.50;99.90;;;;;;5030578;28;20581;-74
2022/11/24 00:03:40;;;;;;;18.47;16.97;;;7.60;99.90;;;;;;5033326;28;20182;-74
2022/11/24 00:06:12;;;;;;;14.97;13.80;;;7.60;99.90;;;;;;5051016;28;20576;-74
2022/11/24 00:08:39;;;;;;;12.03;10.90;;;7.60;99.90;;;;;;5050651;28;20217;-74
2022/11/24 00:11:09;;;;;;;11.00;8.00;;;7.60;99.90;;;;;;5029776;28;20640;-74
2022/11/24 00:13:37;;;;;;;13.33;10.50;;;7.60;99.90;;;;;;5011166;28;20275;-74
2022/11/24 00:16:16;;;;;;;6.87;5.00;;;7.70;99.90;;;;;;5011285;28;20205;-74
2022/11/24 00:18:44;;;;;;;11.73;5.30;;;7.60;99.90;;;;;;4993296;28;20380;-74
2022/11/24 00:21:11;;;;;;;10.23;5.10;;;7.60;99.90;;;;;;5012701;28;20179;-75
2022/11/24 00:23:37;;;;;;;9.83;4.80;;;7.60;99.90;;;;;;5032485;28;20179;-74
2022/11/24 00:26:03;;;;;;;9.07;6.90;;;7.60;99.90;;;;;;5015306;28;20240;-73
2022/11/24 00:28:30;;;;;;;9.00;5.50;;;7.60;99.90;;;;;;5030564;28;20211;-74
2022/11/24 00:30:56;;;;;;;7.00;6.40;;;7.60;99.90;;;;;;5031291;28;20210;-75
2022/11/24 00:33:22;;;;;;;9.87;8.93;;;7.60;99.90;;;;;;5016847;28;20682;-75
2022/11/24 00:35:54;;;;;;;10.33;7.57;;;7.60;99.90;;;;;;5017236;28;20268;-74
2022/11/24 00:38:20;;;;;;;17.40;10.33;;;7.70;99.90;;;;;;5034421;28;20240;-74
2022/11/24 00:40:46;;;;;;;10.57;8.07;;;7.70;99.90;;;;;;5017090;28;20207;-74
2022/11/24 00:43:12;;;;;;;11.37;5.67;;;7.70;99.90;;;;;;5016695;28;20192;-74
2022/11/24 00:45:37;;;;;;;6.40;4.67;;;7.70;99.90;;;;;;5014235;28;20180;-74
2022/11/24 00:48:03;;;;;;;5.10;4.63;;;7.70;99.90;;;;;;4997461;28;20605;-75
2022/11/24 00:50:29;;;;;;;7.60;5.53;;;7.70;99.90;;;;;;4997649;28;20203;-74
2022/11/24 00:52:55;;;;;;;10.73;4.77;;;7.60;99.90;;;;;;5012201;28;20179;-74
2022/11/24 00:55:20;;;;;;;9.77;4.97;;;7.50;99.90;;;;;;5034512;28;20249;-74
2022/11/24 00:57:46;;;;;;;6.90;5.33;;;7.50;99.90;;;;;;5034565;28;20190;-76
2022/11/24 01:00:12;;;;;;;8.57;5.17;;;7.40;99.90;;;;;;5034906;28;20211;-74
2022/11/24 01:02:39;;;;;;;6.80;5.43;;;7.40;99.90;;;;;;5021495;28;20187;-74
2022/11/24 01:05:05;;;;;;;7.17;6.47;;;7.40;99.90;;;;;;5014504;28;20218;-74
2022/11/24 01:07:31;;;;;;;11.57;7.67;;;7.40;99.90;;;;;;5013988;28;20242;-74
2022/11/24 01:09:56;;;;;;;11.43;8.83;;;7.50;99.90;;;;;;5014324;28;20203;-74
2022/11/24 01:12:22;;;;;;;10.43;9.30;;;7.50;99.90;;;;;;5007046;28;20183;-74
2022/11/24 01:14:48;;;;;;;13.67;9.97;;;7.50;99.90;;;;;;5034061;28;20171;-75
2022/11/24 01:17:14;;;;;;;12.77;9.67;;;7.50;99.90;;;;;;5033800;28;20191;-75
2022/11/24 01:19:39;;;;;;;12.47;10.10;;;7.60;99.90;;;;;;5034016;28;20218;-75
2022/11/24 01:22:05;;;;;;;11.07;9.13;;;7.60;99.90;;;;;;5037317;28;20321;-74
2022/11/24 01:24:31;;;;;;;15.50;9.90;;;7.70;99.90;;;;;;5047846;28;20265;-74
2022/11/24 01:26:56;;;;;;;9.70;8.33;;;7.70;99.90;;;;;;5038568;28;20203;-74
2022/11/24 01:29:22;;;;;;;14.63;6.87;;;7.70;99.90;;;;;;5034394;28;20202;-74
2022/11/24 01:31:48;;;;;;;10.43;4.80;;;7.80;99.90;;;;;;5028457;28;20279;-75
2022/11/24 01:34:14;;;;;;;8.73;5.37;;;7.80;99.90;;;;;;5014073;28;20181;-75
2022/11/24 01:36:39;;;;;;;11.53;8.13;;;7.90;99.90;;;;;;5013884;28;20184;-75
2022/11/24 01:39:05;;;;;;;7.67;6.37;;;7.90;99.90;;;;;;5013519;28;20246;-74
2022/11/24 01:41:33;;;;;;;8.40;6.70;;;7.90;99.90;;;;;;5014362;28;20180;-74
2022/11/24 01:43:58;;;;;;;9.83;6.80;;;7.90;99.90;;;;;;5025429;28;20183;-74
2022/11/24 01:46:30;;;;;;;8.10;7.50;;;7.90;99.90;;;;;;4996375;28;20176;-75
2022/11/24 01:49:09;;;;;;;9.77;8.77;;;7.90;99.90;;;;;;5013278;28;20195;-74
2022/11/24 01:51:59;;;;;;;8.17;6.83;;;7.90;99.90;;;;;;5022250;28;20732;-76
2022/11/24 01:54:56;;;;;;;10.20;6.17;;;7.80;99.90;;;;;;5032976;28;20596;-75
2022/11/24 01:57:40;;;;;;;7.47;5.53;;;7.70;99.90;;;;;;5011897;28;20234;-75
2022/11/24 02:00:10;;;;;;;8.67;5.40;;;7.70;99.90;;;;;;5013592;28;20727;-74
2022/11/24 02:02:35;;;;;;;7.17;5.33;;;7.70;99.90;;;;;;5012457;28;20234;-75
2022/11/24 02:05:25;;;;;;;10.40;4.53;;;7.70;99.90;;;;;;5018454;28;20183;-74
2022/11/24 02:07:54;;;;;;;5.50;5.10;;;7.60;99.90;;;;;;5031581;28;20206;-75
2022/11/24 02:10:21;;;;;;;10.50;5.47;;;7.50;99.90;;;;;;5031995;28;20749;-75
2022/11/24 02:12:50;;;;;;;11.07;5.40;;;7.40;99.90;;;;;;5033116;28;20727;-74
2022/11/24 02:15:17;;;;;;;12.00;9.83;;;7.40;99.90;;;;;;5025635;28;20180;-75
2022/11/24 02:17:43;;;;;;;18.67;17.03;;;7.40;99.90;;;;;;5013092;28;20265;-74
2022/11/24 02:20:10;;;;;;;12.87;11.70;;;7.40;99.90;;;;;;5014047;28;20216;-75
2022/11/24 02:23:02;;;;;;;11.43;8.70;;;7.50;99.90;;;;;;4995615;28;20207;-74
2022/11/24 02:25:46;;;;;;;7.30;6.70;;;7.50;99.90;;;;;;5020255;28;20233;-75
2022/11/24 02:28:17;;;;;;;8.23;7.60;;;7.60;99.90;;;;;;5032583;28;20218;-75
2022/11/24 02:30:43;;;;;;;14.50;13.33;;;7.60;99.90;;;;;;5032979;28;20297;-75
2022/11/24 02:33:10;;;;;;;11.40;10.10;;;7.70;99.90;;;;;;5032731;28;20171;-75
2022/11/24 02:35:37;;;;;;;10.07;6.30;;;7.70;99.90;;;;;;5021678;28;20190;-74
2022/11/24 02:38:02;;;;;;;8.50;4.67;;;7.70;99.90;;;;;;5011256;28;20188;-74
2022/11/24 02:40:29;;;;;;;9.53;5.07;;;7.70;99.90;;;;;;4996163;28;20195;-74
2022/11/24 02:43:01;;;;;;;10.07;4.87;;;7.70;99.90;;;;;;5011641;28;20706;-75
2022/11/24 02:45:28;;;;;;;7.17;5.20;;;7.70;99.90;;;;;;5020587;28;20187;-75
2022/11/24 02:47:53;;;;;;;8.70;5.73;;;7.70;99.90;;;;;;5014307;28;20214;-75
2022/11/24 02:50:19;;;;;;;8.77;6.47;;;7.70;99.90;;;;;;5032305;28;20845;-75
2022/11/24 02:52:45;;;;;;;7.27;6.70;;;7.70;99.90;;;;;;5014618;28;20179;-75
2022/11/24 02:55:10;;;;;;;9.10;6.23;;;7.70;99.90;;;;;;5026221;28;20277;-74
2022/11/24 02:57:36;;;;;;;11.63;5.80;;;7.70;99.90;;;;;;5010954;28;20190;-75
2022/11/24 03:00:03;;;;;;;6.87;5.80;;;7.70;99.90;;;;;;5012241;28;20588;-74
2022/11/24 03:02:29;;;;;;;7.33;6.50;;;7.70;99.90;;;;;;5012527;28;20191;-75
2022/11/24 03:04:54;;;;;;;6.87;6.20;;;7.80;99.90;;;;;;5015508;28;20179;-75
2022/11/24 03:07:21;;;;;;;6.67;5.23;;;7.80;99.90;;;;;;5024931;28;20203;-74
2022/11/24 03:09:47;;;;;;;8.10;6.17;;;7.80;99.90;;;;;;5006492;28;20295;-74
2022/11/24 03:12:13;;;;;;;9.27;7.63;;;7.80;99.90;;;;;;5016264;28;20234;-74
2022/11/24 03:14:39;;;;;;;8.27;7.57;;;7.80;99.90;;;;;;5012730;28;20302;-74
2022/11/24 03:17:04;;;;;;;9.17;6.60;;;7.70;99.90;;;;;;5031655;28;20187;-74
2022/11/24 03:19:30;;;;;;;9.67;7.07;;;7.60;99.90;;;;;;5031839;28;20210;-75
2022/11/24 03:21:56;;;;;;;11.43;6.67;;;7.50;99.90;;;;;;5031865;28;20186;-74
2022/11/24 03:24:21;;;;;;;6.77;6.17;;;7.30;99.90;;;;;;5031985;28;20179;-73
2022/11/24 03:26:47;;;;;;;7.33;6.60;;;7.20;99.90;;;;;;4996271;28;20212;-73
2022/11/24 03:29:13;;;;;;;7.13;6.23;;;7.10;99.90;;;;;;5003053;28;20207;-74
2022/11/24 03:31:39;;;;;;;6.57;5.07;;;7.10;99.90;;;;;;5010819;28;20207;-74
2022/11/24 03:34:04;;;;;;;17.03;15.47;;;7.00;99.90;;;;;;5011946;28;20258;-74
2022/11/24 03:36:30;;;;;;;19.83;18.53;;;7.00;99.90;;;;;;5024189;28;20233;-74
2022/11/24 03:38:56;;;;;;;5.73;4.97;;;7.10;99.90;;;;;;5031030;28;20601;-73
2022/11/24 03:41:21;;;;;;;8.27;5.33;;;7.10;99.90;;;;;;5031436;28;20175;-74
2022/11/24 03:43:47;;;;;;;7.27;5.53;;;7.10;99.90;;;;;;5031445;28;20202;-74
2022/11/24 03:46:13;;;;;;;8.20;5.23;;;7.10;99.90;;;;;;5021054;28;20182;-74
2022/11/24 03:48:39;;;;;;;6.33;4.77;;;7.20;99.90;;;;;;5011292;28;20721;-74
2022/11/24 03:51:05;;;;;;;6.83;5.60;;;7.20;99.90;;;;;;5011583;28;20286;-74
2022/11/24 03:53:32;;;;;;;10.50;5.57;;;7.30;99.90;;;;;;5012038;28;20194;-73
2022/11/24 03:55:58;;;;;;;14.50;6.70;;;7.30;99.90;;;;;;5018877;28;20175;-74
2022/11/24 03:58:24;;;;;;;22.27;21.13;;;7.40;99.90;;;;;;5013133;28;20194;-74
2022/11/24 04:00:52;;;;;;;15.97;14.87;;;7.40;99.90;;;;;;5013405;28;20279;-74
2022/11/24 04:03:19;;;;;;;5.67;5.10;;;7.50;99.90;;;;;;5028857;28;20187;-73
2022/11/24 04:05:45;;;;;;;6.53;4.60;;;7.50;99.90;;;;;;5014822;28;20180;-74
2022/11/24 04:08:11;;;;;;;8.23;4.57;;;7.50;99.90;;;;;;5010885;28;20326;-74
2022/11/24 04:10:37;;;;;;;5.90;5.20;;;7.50;99.90;;;;;;5008181;28;20297;-74
2022/11/24 04:13:08;;;;;;;5.17;4.93;;;7.60;99.90;;;;;;5020770;28;20183;-74
2022/11/24 04:15:36;;;;;;;6.33;5.90;;;7.60;99.90;;;;;;5011219;28;20179;-75
2022/11/24 04:18:02;;;;;;;8.07;6.63;;;7.70;99.90;;;;;;4993495;28;20191;-74
2022/11/24 04:20:28;;;;;;;9.60;7.13;;;7.70;99.90;;;;;;5011087;28;20211;-74
2022/11/24 04:22:53;;;;;;;8.07;7.27;;;7.80;99.90;;;;;;5010113;28;20649;-74
2022/11/24 04:25:19;;;;;;;9.33;8.73;;;7.70;99.90;;;;;;5026009;28;20183;-73
2022/11/24 04:27:51;;;;;;;10.60;9.43;;;7.80;99.90;;;;;;5027343;28;20579;-73
2022/11/24 04:30:17;;;;;;;12.47;11.37;;;7.90;99.90;;;;;;5010807;28;20211;-74
2022/11/24 04:32:43;;;;;;;15.30;14.30;;;7.90;99.90;;;;;;4993486;28;20188;-74
2022/11/24 04:35:09;;;;;;;17.40;16.13;;;8.00;99.90;;;;;;5010878;28;20179;-74
2022/11/24 04:37:35;;;;;;;16.83;15.83;;;8.00;99.90;;;;;;5010652;28;20180;-74
2022/11/24 04:40:02;;;;;;;14.30;13.23;;;8.10;99.90;;;;;;5010635;28;20203;-74
2022/11/24 04:42:28;;;;;;;12.00;10.83;;;8.10;99.90;;;;;;4993495;28;20187;-74
2022/11/24 04:44:54;;;;;;;8.83;8.33;;;8.10;99.90;;;;;;5010916;28;20718;-74
2022/11/24 04:47:22;;;;;;;11.47;8.57;;;8.10;99.90;;;;;;5009543;28;20207;-74
2022/11/24 04:49:48;;;;;;;10.23;9.30;;;8.10;99.90;;;;;;5011173;28;20260;-74
2022/11/24 04:52:14;;;;;;;10.03;8.73;;;8.10;99.90;;;;;;5011039;28;20274;-74
2022/11/24 04:54:40;;;;;;;8.87;7.57;;;8.20;99.90;;;;;;5013299;28;20184;-75
2022/11/24 04:57:06;;;;;;;7.13;6.63;;;8.10;99.90;;;;;;5023637;28;20175;-74
2022/11/24 04:59:33;;;;;;;7.17;6.60;;;8.10;99.90;;;;;;5032072;28;20317;-74
2022/11/24 05:01:58;;;;;;;5.40;4.90;;;8.10;99.90;;;;;;5030555;28;20241;-74
2022/11/24 05:04:24;;;;;;;6.20;4.50;;;8.10;99.90;;;;;;5030781;28;20234;-74
2022/11/24 05:06:50;;;;;;;6.37;4.80;;;8.20;99.90;;;;;;5029877;28;20262;-74
2022/11/24 05:09:17;;;;;;;6.07;4.50;;;8.10;99.90;;;;;;5021088;28;20676;-74
2022/11/24 05:11:44;;;;;;;5.83;4.73;;;8.10;99.90;;;;;;5010852;28;20215;-80
2022/11/24 05:14:10;;;;;;;5.13;4.63;;;8.10;99.90;;;;;;5035069;28;20184;-80
2022/11/24 05:16:36;;;;;;;6.43;5.10;;;8.10;99.90;;;;;;5020411;28;20599;-79
2022/11/24 05:19:02;;;;;;;5.23;4.87;;;8.10;99.90;;;;;;5019438;28;20204;-78
2022/11/24 05:21:28;;;;;;;6.30;4.53;;;8.10;99.90;;;;;;5018613;28;20262;-78
2022/11/24 05:23:54;;;;;;;6.63;5.73;;;8.20;99.90;;;;;;5026188;28;20199;-78
2022/11/24 05:26:21;;;;;;;7.87;7.33;;;8.20;99.90;;;;;;5035509;28;20610;-79
2022/11/24 05:28:47;;;;;;;10.93;10.07;;;8.10;99.90;;;;;;5018993;28;20235;-78
2022/11/24 05:31:13;;;;;;;5.83;5.33;;;8.00;99.90;;;;;;5035459;28;20184;-79
2022/11/24 05:33:38;;;;;;;8.67;5.33;;;8.00;99.90;;;;;;5031931;28;20179;-78
2022/11/24 05:36:06;;;;;;;5.67;5.20;;;7.90;99.90;;;;;;5031459;28;20270;-77
2022/11/24 05:38:32;;;;;;;9.40;5.67;;;8.00;99.90;;;;;;5032680;28;20187;-77
2022/11/24 05:41:03;;;;;;;10.03;5.03;;;8.00;99.90;;;;;;5020342;28;20722;-78
2022/11/24 05:43:29;;;;;;;14.47;6.27;;;8.00;99.90;;;;;;5037725;28;20226;-76
2022/11/24 05:46:01;;;;;;;7.33;5.27;;;8.00;99.90;;;;;;5021075;28;20179;-78
2022/11/24 05:48:27;;;;;;;5.33;5.03;;;7.90;99.90;;;;;;5035370;28;20179;-72
2022/11/24 05:50:57;;;;;;;9.23;5.60;;;7.90;99.90;;;;;;5033172;28;20558;-72
2022/11/24 05:53:25;;;;;;;10.60;5.27;;;8.00;99.90;;;;;;5033099;28;20219;-72
2022/11/24 05:55:50;;;;;;;11.07;9.63;;;8.20;99.90;;;;;;5033051;28;20183;-72
2022/11/24 05:58:16;;;;;;;19.00;17.43;;;8.20;99.90;;;;;;5031469;28;20713;-72
2022/11/24 06:00:42;;;;;;;20.50;18.97;;;8.10;99.90;;;;;;5070085;22;20237;-70
2022/11/24 06:03:10;;;;;;;35.80;33.30;;;8.10;99.90;;;;;;5052985;28;20175;-74
2022/11/24 06:05:35;;;;;;;46.43;43.73;;;8.10;99.90;;;;;;5051895;28;20186;-74
2022/11/24 06:08:01;;;;;;;48.07;45.23;;;8.10;99.90;;;;;;5051130;28;20201;-75
2022/11/24 06:10:27;;;;;;;47.27;44.17;;;8.00;99.90;;;;;;5052984;28;20210;-75
2022/11/24 06:12:53;;;;;;;41.83;39.07;;;8.00;99.90;;;;;;5052984;28;20178;-75
2022/11/24 06:15:19;;;;;;;47.77;45.27;;;7.90;99.90;;;;;;5052746;28;20178;-75
2022/11/24 06:17:53;;;;;;;54.07;51.03;;;7.80;99.90;;;;;;5052583;28;20218;-75
2022/11/24 06:20:19;;;;;;;59.27;55.67;;;7.70;99.90;;;;;;5065419;28;20194;-75
2022/11/24 06:22:44;;;;;;;48.47;45.83;;;7.70;99.90;;;;;;5053521;28;20179;-75
2022/11/24 06:25:10;;;;;;;32.87;30.80;;;7.70;99.90;;;;;;5051809;28;20261;-76
2022/11/24 06:27:36;;;;;;;13.83;12.73;;;7.70;99.90;;;;;;5051412;28;20229;-76
2022/11/24 06:30:02;;;;;;;21.70;19.67;;;7.80;99.90;;;;;;5053217;28;20206;-75
2022/11/24 06:32:28;;;;;;;26.53;24.63;;;7.80;99.90;;;;;;5054379;28;20250;-76
2022/11/24 06:34:54;;;;;;;45.63;42.97;;;7.80;99.90;;;;;;5055467;28;20685;-76
2022/11/24 06:37:20;;;;;;;55.57;51.97;;;7.80;99.90;;;;;;5051879;28;20598;-76
2022/11/24 06:39:46;;;;;;;42.10;38.93;;;7.80;99.90;;;;;;5051934;28;20206;-74
2022/11/24 06:42:12;;;;;;;58.20;54.67;;;7.90;99.90;;;;;;5051906;28;20181;-74
2022/11/24 06:44:38;;;;;;;46.90;43.97;;;7.90;99.90;;;;;;5051339;28;20674;-74
2022/11/24 06:47:04;;;;;;;42.67;40.10;;;8.00;99.90;;;;;;5050902;28;20205;-74
2022/11/24 06:49:29;;;;;;;30.00;27.53;;;8.00;99.90;;;;;;5052178;28;20256;-75
2022/11/24 06:51:55;;;;;;;20.23;18.90;;;8.00;99.90;;;;;;5052308;28;20252;-75
2022/11/24 06:54:21;;;;;;;10.30;8.13;;;8.10;99.90;;;;;;5051097;28;20218;-74
2022/11/24 06:56:47;;;;;;;12.40;7.37;;;8.10;99.90;;;;;;5051316;28;20174;-74
2022/11/24 06:59:17;;;;;;;11.60;5.27;;;8.20;99.90;;;;;;5051915;28;20269;-74
2022/11/24 07:01:43;;;;;;;6.83;5.60;;;8.30;99.90;;;;;;5052162;28;20179;-74
2022/11/24 07:04:10;;;;;;;12.10;10.33;;;8.30;99.90;;;;;;5052125;28;20748;-74
2022/11/24 07:06:36;;;;;;;11.93;10.97;;;8.40;99.90;;;;;;5052138;28;20182;-75
2022/11/24 07:09:01;;;;;;;13.07;9.63;;;8.50;99.90;;;;;;5051575;28;20546;-75
2022/11/24 07:11:27;;;;;;;10.13;7.53;;;8.50;99.90;;;;;;5050841;28;20209;-75
2022/11/24 07:13:53;;;;;;;13.17;5.93;;;8.50;99.90;;;;;;5051912;28;20179;-74
2022/11/24 07:16:21;;;;;;;8.10;5.07;;;8.50;99.90;;;;;;5051750;28;20734;-74
2022/11/24 07:18:50;;;;;;;8.07;4.73;;;8.50;99.90;;;;;;5051382;28;20214;-74
2022/11/24 07:21:16;;;;;;;8.40;5.47;;;8.50;99.90;;;;;;5050802;28;20557;-74
2022/11/24 07:23:42;;;;;;;11.03;4.73;;;8.50;99.90;;;;;;5050331;28;20643;-74
2022/11/24 07:26:08;;;;;;;7.17;5.47;;;8.60;99.90;;;;;;5050494;28;20285;-74
2022/11/24 07:28:35;;;;;;;7.83;5.43;;;8.50;99.90;;;;;;5050850;28;20174;-74
2022/11/24 07:31:10;;;;;;;6.47;5.87;;;8.50;99.90;;;;;;5050432;28;20558;-75
2022/11/24 07:33:36;;;;;;;9.43;4.80;;;8.40;99.90;;;;;;5050352;28;20694;-75
2022/11/24 07:36:04;;;;;;;18.00;16.40;;;8.20;99.90;;;;;;5050789;28;20179;-75
2022/11/24 07:38:31;;;;;;;13.40;11.80;;;7.90;99.90;;;;;;5049861;28;20309;-75
2022/11/24 07:41:05;;;;;;;60.07;56.27;;;7.70;99.90;;;;;;5050653;28;20198;-75
2022/11/24 07:43:33;;;;;;;21.77;19.63;;;7.60;99.90;;;;;;5050305;28;20210;-75
2022/11/24 07:45:59;;;;;;;14.40;11.73;;;7.50;99.90;;;;;;5051440;28;20599;-75
2022/11/24 07:48:25;;;;;;;28.37;26.17;;;7.40;99.90;;;;;;5051013;28;20200;-75
2022/11/24 07:50:51;;;;;;;83.57;78.70;;;7.40;99.90;;;;;;5050029;28;20202;-74
2022/11/24 07:53:17;;;;;;;32.87;30.47;;;7.40;99.90;;;;;;5050107;28;20722;-75
2022/11/24 07:55:43;;;;;;;21.13;19.13;;;7.30;99.90;;;;;;5050060;28;20232;-75
2022/11/24 07:58:09;;;;;;;18.20;11.50;;;7.30;99.90;;;;;;5051208;28;20301;-75
2022/11/24 08:00:34;;;;;;;25.67;23.57;;;7.30;99.90;;;;;;5052681;28;20297;-74
2022/11/24 08:03:00;;;;;;;43.07;40.23;;;7.30;99.90;;;;;;5050478;28;20232;-75
2022/11/24 08:05:26;;;;;;;54.20;50.57;;;7.30;99.90;;;;;;5049860;28;20424;-75
2022/11/24 08:07:52;;;;;;;61.77;57.67;;;7.30;99.90;;;;;;5049602;28;20280;-74
2022/11/24 08:10:17;;;;;;;38.63;35.60;;;7.20;99.90;;;;;;5050977;28;20204;-75
2022/11/24 08:12:43;;;;;;;29.47;26.93;;;7.20;99.90;;;;;;5049936;28;20232;-75
2022/11/24 08:15:09;;;;;;;11.53;7.43;;;7.10;99.90;;;;;;5049780;28;20183;-75
2022/11/24 08:17:35;;;;;;;15.43;14.00;;;7.20;99.90;;;;;;5049456;28;20255;-75
2022/11/24 08:20:01;;;;;;;10.10;8.97;;;7.10;99.90;;;;;;5049587;28;20609;-75
2022/11/24 08:22:27;;;;;;;15.67;13.93;;;7.20;99.90;;;;;;5050964;28;20220;-75
2022/11/24 08:24:52;;;;;;;14.97;12.87;;;7.20;99.90;;;;;;5050737;28;20178;-75
2022/11/24 08:27:18;;;;;;;15.87;7.63;;;7.20;99.90;;;;;;5050577;28;20212;-75
2022/11/24 08:29:44;;;;;;;15.00;10.70;;;7.20;99.90;;;;;;5051152;28;20284;-75
2022/11/24 08:32:11;;;;;;;14.97;9.37;;;7.20;99.90;;;;;;5050801;28;20182;-75
2022/11/24 08:34:37;;;;;;;13.73;9.63;;;7.30;99.90;;;;;;5050783;28;20271;-75
2022/11/24 08:37:06;;;;;;;14.47;9.97;;;7.30;99.90;;;;;;5050430;28;20213;-75
2022/11/24 08:39:32;;;;;;;14.37;8.50;;;7.40;99.90;;;;;;5049540;28;20202;-74
2022/11/24 08:41:58;;;;;;;14.87;6.97;;;7.40;99.90;;;;;;5051089;28;20178;-75
2022/11/24 08:44:24;;;;;;;11.67;7.03;;;7.40;99.90;;;;;;5049567;28;20174;-75
2022/11/24 08:46:52;;;;;;;11.03;7.37;;;7.40;99.90;;;;;;5049185;28;20670;-74
2022/11/24 08:49:18;;;;;;;17.63;6.77;;;7.40;99.90;;;;;;5049370;28;20817;-74
2022/11/24 08:51:45;;;;;;;12.47;9.70;;;7.50;99.90;;;;;;5051130;28;20174;-74
2022/11/24 08:54:14;;;;;;;16.03;12.23;;;7.40;99.90;;;;;;5053493;28;20174;-75
2022/11/24 08:56:40;;;;;;;19.53;17.60;;;7.50;99.90;;;;;;5054723;28;20191;-75
2022/11/24 08:59:06;;;;;;;20.00;17.90;;;7.50;99.90;;;;;;5054007;28;20297;-75
2022/11/24 09:01:31;;;;;;;30.40;27.67;;;7.60;99.90;;;;;;5054521;28;20286;-75
2022/11/24 09:03:57;;;;;;;16.00;14.43;;;7.60;99.90;;;;;;5053357;28;20186;-74
2022/11/24 09:06:29;;;;;;;20.23;16.50;;;7.70;99.90;;;;;;5054397;28;20677;-74
2022/11/24 09:08:56;;;;;;;15.27;13.60;;;7.70;99.90;;;;;;5052879;28;20626;-74
2022/11/24 09:11:23;;;;;;;17.20;15.47;;;7.80;99.90;;;;;;5053211;28;20202;-75
2022/11/24 09:13:49;;;;;;;23.80;21.53;;;7.80;99.90;;;;;;5053129;28;20187;-74
2022/11/24 09:16:17;;;;;;;21.93;20.20;;;7.80;99.90;;;;;;5054308;28;20225;-73
2022/11/24 09:18:43;;;;;;;21.30;19.73;;;7.80;99.90;;;;;;5052695;28;20641;-74
2022/11/24 09:21:18;;;;;;;27.00;24.97;;;7.80;99.90;;;;;;5053074;28;20293;-75
2022/11/24 09:23:47;;;;;;;22.03;20.37;;;7.90;99.90;;;;;;5053907;28;20249;-75
2022/11/24 09:26:18;;;;;;;22.40;20.63;;;7.90;99.90;;;;;;5053064;28;20200;-73
2022/11/24 09:28:45;;;;;;;40.20;36.30;;;7.90;99.90;;;;;;5053958;28;20178;-74
2022/11/24 09:31:13;;;;;;;25.10;23.27;;;7.90;99.90;;;;;;5054861;28;20607;-74
2022/11/24 09:33:39;;;;;;;22.80;21.30;;;8.00;99.90;;;;;;5054158;28;20190;-74
2022/11/24 09:36:06;;;;;;;28.23;25.73;;;8.00;99.90;;;;;;5053978;28;20190;-74
2022/11/24 09:38:32;;;;;;;21.17;19.33;;;8.10;99.90;;;;;;5053364;28;20280;-74
2022/11/24 09:41:16;;;;;;;19.73;18.30;;;8.10;99.90;;;;;;5052714;28;20222;-74
2022/11/24 09:43:57;;;;;;;17.97;16.87;;;8.30;99.90;;;;;;5053973;28;20174;-75
2022/11/24 09:46:34;;;;;;;34.03;31.50;;;8.50;99.90;;;;;;5053860;28;20265;-75
2022/11/24 09:49:01;;;;;;;9.80;8.73;;;8.60;99.90;;;;;;5053356;28;20175;-75
2022/11/24 09:51:30;;;;;;;10.23;9.27;;;8.60;99.90;;;;;;5053766;28;20185;-74
2022/11/24 09:54:02;;;;;;;6.17;5.60;;;8.60;99.90;;;;;;5053536;28;20186;-75
2022/11/24 09:56:32;;;;;;;7.33;6.40;;;8.60;99.90;;;;;;5052462;28;20182;-75
2022/11/24 09:59:21;;;;;;;9.23;7.20;;;8.50;99.90;;;;;;5053653;28;20761;-75
2022/11/24 10:01:49;;;;;;;9.27;6.53;;;8.50;99.90;;;;;;5052473;28;20182;-75
2022/11/24 10:04:51;;;;;;;7.30;5.43;;;8.50;99.90;;;;;;5051402;28;20236;-75
2022/11/24 10:07:22;;;;;;;11.70;5.37;;;8.40;99.90;;;;;;5050918;28;20277;-74
2022/11/24 10:10:10;;;;;;;6.50;4.73;;;8.50;99.90;;;;;;5053497;28;20213;-75
2022/11/24 10:12:58;;;;;;;7.00;4.97;;;8.50;99.90;;;;;;5052239;28;20441;-74
2022/11/24 10:15:41;;;;;;;7.60;5.90;;;8.50;99.90;;;;;;5053114;28;20627;-74
2022/11/24 10:18:29;;;;;;;10.57;9.67;;;8.40;99.90;;;;;;5052514;28;20753;-75
2022/11/24 10:21:24;;;;;;;6.47;5.73;;;8.40;99.90;;;;;;5053123;28;20209;-75
2022/11/24 10:24:21;;;;;;;5.90;5.50;;;8.30;99.90;;;;;;5052990;28;20182;-75
2022/11/24 10:26:57;;;;;;;7.07;4.70;;;8.30;99.90;;;;;;5052794;28;20666;-75
2022/11/24 10:29:36;;;;;;;9.50;4.90;;;8.50;99.90;;;;;;5052643;28;20247;-75
2022/11/24 10:32:10;;;;;;;4.80;4.37;;;8.50;99.90;;;;;;5052241;28;20228;-75
2022/11/24 10:34:43;;;;;;;5.17;4.77;;;8.60;99.90;;;;;;5051734;28;20228;-75
2022/11/24 10:37:50;;;;;;;5.63;5.03;;;8.80;99.90;;;;;;5051465;28;20234;-75
2022/11/24 10:40:34;;;;;;;4.90;4.47;;;8.80;99.90;;;;;;4992158;28;20202;-75
2022/11/24 10:43:00;;;;;;;5.30;5.00;;;8.90;99.90;;;;;;5048283;28;20507;-75
2022/11/24 10:45:28;;;;;;;6.73;6.23;;;9.00;99.90;;;;;;5052663;28;20181;-75
2022/11/24 10:47:54;;;;;;;10.30;9.70;;;9.10;99.90;;;;;;5050924;28;20186;-75
2022/11/24 10:50:24;;;;;;;8.60;8.10;;;9.20;99.90;;;;;;5052626;28;20201;-76
2022/11/24 10:53:15;;;;;;;10.97;10.37;;;9.10;99.90;;;;;;5051477;28;20192;-75
2022/11/24 10:55:57;;;;;;;6.00;5.40;;;9.30;99.90;;;;;;5053733;28;20204;-75
2022/11/24 10:58:30;;;;;;;8.40;7.87;;;9.90;99.90;;;;;;5053336;28;20568;-75
2022/11/24 11:00:59;;;;;;;7.37;6.73;;;10.30;99.90;;;;;;5051764;28;20687;-75
2022/11/24 11:03:32;;;;;;;9.10;8.47;;;10.50;99.90;;;;;;5051067;28;20269;-75
2022/11/24 11:06:12;;;;;;;17.63;16.60;;;11.00;99.90;;;;;;5051861;28;20186;-76
2022/11/24 11:08:38;;;;;;;16.57;15.33;;;11.70;99.90;;;;;;5051650;28;20182;-74
2022/11/24 11:11:26;;;;;;;9.33;8.77;;;12.60;99.90;;;;;;5052125;28;20255;-75
2022/11/24 11:14:00;;;;;;;14.37;13.33;;;14.70;99.90;;;;;;5051871;28;20188;-75
2022/11/24 11:16:45;;;;;;;7.20;6.67;;;14.80;99.90;;;;;;5050654;28;20304;-75
2022/11/24 11:19:39;;;;;;;11.27;10.63;;;15.40;99.90;;;;;;5051782;28;20714;-75
2022/11/24 11:22:05;;;;;;;9.27;8.87;;;15.70;99.90;;;;;;5050580;28;20647;-74
2022/11/24 11:24:31;;;;;;;4.70;4.47;;;15.60;99.90;;;;;;5051512;28;20193;-74
2022/11/24 11:27:03;;;;;;;3.93;3.23;;;16.20;99.90;;;;;;5051418;28;20174;-75
2022/11/24 11:29:29;;;;;;;4.27;4.17;;;16.30;99.90;;;;;;5051414;28;20209;-74
2022/11/24 11:32:15;;;;;;;5.20;4.80;;;15.70;99.90;;;;;;5050409;28;20187;-75
2022/11/24 11:34:41;;;;;;;6.10;5.80;;;14.50;99.90;;;;;;5051611;28;20178;-76
2022/11/24 11:37:11;;;;;;;8.93;8.27;;;13.00;99.90;;;;;;5051271;28;20171;-76
2022/11/24 11:39:46;;;;;;;8.73;8.23;;;12.10;99.90;;;;;;5050405;28;20705;-76
2022/11/24 11:42:21;;;;;;;7.73;7.37;;;11.40;99.90;;;;;;5051555;28;20296;-76
2022/11/24 11:45:05;;;;;;;6.73;6.40;;;10.90;99.90;;;;;;5050173;28;20189;-76
2022/11/24 11:47:56;;;;;;;33.40;31.90;;;11.00;99.90;;;;;;5051120;28;20241;-76
2022/11/24 11:50:27;;;;;;;24.80;23.37;;;12.30;99.90;;;;;;5050179;28;20259;-74
2022/11/24 11:53:20;;;;;;;5.07;4.57;;;13.90;99.90;;;;;;5050214;28;20209;-74
2022/11/24 11:55:56;;;;;;;4.33;4.03;;;13.80;99.90;;;;;;5050203;28;20213;-74
2022/11/24 11:58:42;;;;;;;4.17;3.87;;;14.70;99.90;;;;;;5051298;28;20228;-74
2022/11/24 12:01:39;;;;;;;4.53;4.23;;;15.50;99.90;;;;;;5073752;22;20237;-74
2022/11/24 12:04:37;;;;;;;6.63;6.13;;;15.10;99.90;;;;;;5050153;28;20187;-75
2022/11/24 12:08:00;;;;;;;6.10;5.70;;;14.40;99.90;;;;;;5049787;28;20178;-74
2022/11/24 12:10:46;;;;;;;6.80;6.40;;;14.20;99.90;;;;;;4989682;28;20243;-74
2022/11/24 12:13:45;;;;;;;7.37;6.97;;;13.50;99.90;;;;;;4989737;28;20188;-75
2022/11/24 12:16:21;;;;;;;6.07;5.50;;;12.40;99.90;;;;;;5004427;28;20651;-75
2022/11/24 12:18:47;;;;;;;9.87;9.40;;;12.00;99.90;;;;;;5049448;28;20213;-75
2022/11/24 12:21:17;;;;;;;11.73;11.13;;;11.90;99.90;;;;;;5051093;28;20190;-75
2022/11/24 12:23:55;;;;;;;11.17;10.47;;;12.20;99.90;;;;;;5051032;28;20280;-74
2022/11/24 12:26:45;;;;;;;6.20;5.80;;;12.40;99.90;;;;;;5053997;28;20178;-74
2022/11/24 12:29:37;;;;;;;6.70;5.90;;;12.30;99.90;;;;;;5058376;28;20185;-75
2022/11/24 12:32:09;;;;;;;5.40;5.03;;;12.30;99.90;;;;;;5058047;28;20367;-73
2022/11/24 12:34:42;;;;;;;7.33;6.77;;;12.20;99.90;;;;;;5057788;28;20219;-75
2022/11/24 12:37:32;;;;;;;6.70;6.30;;;12.00;99.90;;;;;;5057424;28;20189;-74
2022/11/24 12:40:13;;;;;;;10.97;10.27;;;11.80;99.90;;;;;;5056475;28;20265;-73
2022/11/24 12:43:01;;;;;;;10.47;9.90;;;11.80;99.90;;;;;;5057457;28;20252;-74
2022/11/24 12:45:37;;;;;;;11.67;11.07;;;11.70;99.90;;;;;;5057618;28;20182;-73
2022/11/24 12:48:31;;;;;;;11.43;10.67;;;11.70;99.90;;;;;;5057124;28;20611;-73
2022/11/24 12:50:57;;;;;;;11.37;9.43;;;11.60;99.90;;;;;;5058935;28;20202;-74
2022/11/24 12:53:35;;;;;;;9.77;8.67;;;11.70;99.90;;;;;;5058466;28;20185;-74
2022/11/24 12:56:11;;;;;;;14.47;13.00;;;12.90;99.90;;;;;;5056586;28;20189;-73
2022/11/24 12:59:03;;;;;;;9.80;9.03;;;14.00;99.90;;;;;;5057011;28;20216;-74
2022/11/24 13:01:47;;;;;;;8.60;7.50;;;13.40;99.90;;;;;;5041208;28;20775;-74
2022/11/24 13:04:50;;;;;;;7.13;6.13;;;12.60;99.90;;;;;;5056260;28;20560;-75